Santa Rosa Beach, FL (32459)

3:17 PM CST on January 29, 2015 (GMT -0600)
Spyglass Hill | Change Station
CLOSE
Current Station
Personal Weather Station
Location: Santa Rosa Beach, FL
Elevation: 40 ft
Nearby Weather Stations

Elev 40 ft 30.35 °N, 86.23 °W | Updated 5 seconds ago

Partly Cloudy
Partly Cloudy
65.5 °F
Feels Like 65.5 °F
N
4.9
Wind Variable Wind from WSW
Gusts 8.0 mph

Today
High -- | Low -- °F
--% Chance of Precip.
Yesterday
High -- | Low -- °F
Precip. -- in
6:37 AM 5:18 PM
Waxing Gibbous, 77% visible
Pressure 30.24 in
Visibility 10.0 miles
Clouds Clear
Dew Point 54 °F
Humidity 67%
Rainfall 0.00 in
Snow Depth Not available.
UV 3 out of 12
Pollen 6.20 out of 12
Air Quality Not available.
Flu Activity Not available.
METAR KDTS 292053Z AUTO 18005KT 10SM CLR 19/12 A3024 RMK AO2 RAB15E24 SLP238 P0000 60000 T01890117 56016 TSNO

More Conditions Fewer Conditions

Pressure 30.24 in
Visibility 10.0 miles
Clouds Clear
Dew Point 54 °F
Humidity 67%
Rainfall 0.00 in
Snow Depth Not available.
UV 3 out of 12
Pollen 6.20 out of 12
Air Quality Not available.
Flu Activity Not available.
METAR KDTS 292053Z AUTO 18005KT 10SM CLR 19/12 A3024 RMK AO2 RAB15E24 SLP238 P0000 60000 T01890117 56016 TSNO

More Conditions Fewer Conditions

10-Day Weather Forecast

Almanac

Astronomy

Jan. 29, 2015 Rise Set
Actual Time
Civil Twilight
Nautical Twilight
Astronomical Twilight
Moon
Length of Visible Light
Length of Day
Tomorrow will be .
, % of the Moon is Illuminated

Today's Extremes

State Highs State Lows

Community

WunderPhotos

Upload Photos

1,791,608 photos uploaded!

WunderBlogs® & News

Nearby

Air Quality

  Air Quality AQ Index Pollutant
Not available.

Snow Depth

Station Depth Elevation

Earthquake Activity

City Distance Mag. Time & Date
Minimum magnitude displayed is 2.5.

Coastal Water Temperatures

Place Temperature

Nearby Weather Stations